sensor_id;sensor_type;location;lat;lon;timestamp;pressure;altitude;pressure_sealevel;temperature;humidity
25238;BME280;13185;50.872;5.306;2023-12-20T00:00:41;101406.38;;;6.35;100.00
25238;BME280;13185;50.872;5.306;2023-12-20T00:03:06;101419.75;;;6.33;100.00
25238;BME280;13185;50.872;5.306;2023-12-20T00:05:32;101413.75;;;6.28;100.00
25238;BME280;13185;50.872;5.306;2023-12-20T00:07:58;101421.97;;;6.22;100.00
25238;BME280;13185;50.872;5.306;2023-12-20T00:10:24;101414.03;;;6.21;100.00
25238;BME280;13185;50.872;5.306;2023-12-20T00:12:49;101416.03;;;6.14;100.00
25238;BME280;13185;50.872;5.306;2023-12-20T00:15:15;101411.72;;;6.12;100.00
25238;BME280;13185;50.872;5.306;2023-12-20T00:17:40;101417.31;;;6.04;100.00
25238;BME280;13185;50.872;5.306;2023-12-20T00:20:06;101425.47;;;5.99;100.00
25238;BME280;13185;50.872;5.306;2023-12-20T00:22:32;101430.06;;;5.96;100.00
25238;BME280;13185;50.872;5.306;2023-12-20T00:24:57;101428.41;;;5.92;100.00
25238;BME280;13185;50.872;5.306;2023-12-20T00:27:23;101438.28;;;5.88;100.00
25238;BME280;13185;50.872;5.306;2023-12-20T00:29:48;101437.53;;;5.85;100.00
25238;BME280;13185;50.872;5.306;2023-12-20T00:32:16;101445.69;;;5.80;100.00
25238;BME280;13185;50.872;5.306;2023-12-20T00:34:42;101448.41;;;5.78;100.00
25238;BME280;13185;50.872;5.306;2023-12-20T00:37:08;101443.19;;;5.75;100.00
25238;BME280;13185;50.872;5.306;2023-12-20T00:39:33;101437.09;;;5.72;100.00
25238;BME280;13185;50.872;5.306;2023-12-20T00:41:59;101446.97;;;5.68;100.00
25238;BME280;13185;50.872;5.306;2023-12-20T00:44:24;101445.38;;;5.64;100.00
25238;BME280;13185;50.872;5.306;2023-12-20T00:46:50;101443.63;;;5.63;100.00
25238;BME280;13185;50.872;5.306;2023-12-20T00:49:15;101438.38;;;5.60;100.00
25238;BME280;13185;50.872;5.306;2023-12-20T00:51:41;101442.78;;;5.61;100.00
25238;BME280;13185;50.872;5.306;2023-12-20T00:54:06;101447.25;;;5.61;100.00
25238;BME280;13185;50.872;5.306;2023-12-20T00:56:32;101446.28;;;5.63;100.00
25238;BME280;13185;50.872;5.306;2023-12-20T00:58:57;101439.31;;;5.59;100.00
25238;BME280;13185;50.872;5.306;2023-12-20T01:01:23;101431.50;;;5.55;100.00
25238;BME280;13185;50.872;5.306;2023-12-20T01:03:48;101433.34;;;5.53;100.00
25238;BME280;13185;50.872;5.306;2023-12-20T01:06:16;101445.75;;;5.54;100.00
25238;BME280;13185;50.872;5.306;2023-12-20T01:08:42;101450.22;;;5.51;100.00
25238;BME280;13185;50.872;5.306;2023-12-20T01:11:07;101434.25;;;5.51;100.00
25238;BME280;13185;50.872;5.306;2023-12-20T01:13:33;101435.22;;;5.49;100.00
25238;BME280;13185;50.872;5.306;2023-12-20T01:15:58;101436.97;;;5.50;100.00
25238;BME280;13185;50.872;5.306;2023-12-20T01:18:24;101438.75;;;5.49;100.00
25238;BME280;13185;50.872;5.306;2023-12-20T01:20:49;101433.44;;;5.49;100.00
25238;BME280;13185;50.872;5.306;2023-12-20T01:23:15;101437.91;;;5.49;100.00
25238;BME280;13185;50.872;5.306;2023-12-20T01:25:40;101424.59;;;5.49;100.00
25238;BME280;13185;50.872;5.306;2023-12-20T01:28:06;101421.19;;;5.45;100.00
25238;BME280;13185;50.872;5.306;2023-12-20T01:30:32;101418.56;;;5.44;100.00
25238;BME280;13185;50.872;5.306;2023-12-20T01:33:00;101430.94;;;5.45;100.00
25238;BME280;13185;50.872;5.306;2023-12-20T01:35:26;101430.09;;;5.44;100.00
25238;BME280;13185;50.872;5.306;2023-12-20T01:37:52;101438.16;;;5.41;100.00
25238;BME280;13185;50.872;5.306;2023-12-20T01:40:22;101433.75;;;5.40;100.00
25238;BME280;13185;50.872;5.306;2023-12-20T01:43:00;101426.69;;;5.39;100.00
25238;BME280;13185;50.872;5.306;2023-12-20T01:45:26;101441.03;;;5.35;100.00
25238;BME280;13185;50.872;5.306;2023-12-20T01:47:52;101447.38;;;5.31;100.00
25238;BME280;13185;50.872;5.306;2023-12-20T01:50:18;101459.97;;;5.26;100.00
25238;BME280;13185;50.872;5.306;2023-12-20T01:52:44;101459.09;;;5.26;100.00
25238;BME280;13185;50.872;5.306;2023-12-20T01:55:10;101467.06;;;5.26;100.00
25238;BME280;13185;50.872;5.306;2023-12-20T01:57:41;101468.97;;;5.22;100.00
25238;BME280;13185;50.872;5.306;2023-12-20T02:00:09;101465.47;;;5.20;100.00
25238;BME280;13185;50.872;5.306;2023-12-20T02:02:39;101466.38;;;5.19;100.00
25238;BME280;13185;50.872;5.306;2023-12-20T02:05:08;101468.28;;;5.15;100.00
25238;BME280;13185;50.872;5.306;2023-12-20T02:07:34;101473.66;;;5.14;100.00
25238;BME280;13185;50.872;5.306;2023-12-20T02:10:01;101474.66;;;5.10;100.00
25238;BME280;13185;50.872;5.306;2023-12-20T02:12:27;101462.41;;;5.06;100.00
25238;BME280;13185;50.872;5.306;2023-12-20T02:14:52;101463.31;;;5.05;100.00
25238;BME280;13185;50.872;5.306;2023-12-20T02:17:20;101464.31;;;5.02;100.00
25238;BME280;13185;50.872;5.306;2023-12-20T02:19:45;101471.47;;;4.99;100.00
25238;BME280;13185;50.872;5.306;2023-12-20T02:22:11;101460.91;;;4.97;100.00
25238;BME280;13185;50.872;5.306;2023-12-20T02:24:37;101461.88;;;4.95;100.00
25238;BME280;13185;50.872;5.306;2023-12-20T02:27:03;101463.66;;;4.94;100.00
25238;BME280;13185;50.872;5.306;2023-12-20T02:29:30;101460.97;;;4.96;100.00
25238;BME280;13185;50.872;5.306;2023-12-20T02:31:56;101466.38;;;4.92;100.00
25238;BME280;13185;50.872;5.306;2023-12-20T02:34:21;101475.28;;;4.91;100.00
25238;BME280;13185;50.872;5.306;2023-12-20T02:36:47;101474.53;;;4.86;100.00
25238;BME280;13185;50.872;5.306;2023-12-20T02:39:12;101469.31;;;4.83;100.00
25238;BME280;13185;50.872;5.306;2023-12-20T02:41:38;101460.53;;;4.81;100.00
25238;BME280;13185;50.872;5.306;2023-12-20T02:44:04;101461.47;;;4.79;100.00
25238;BME280;13185;50.872;5.306;2023-12-20T02:46:29;101471.34;;;4.75;100.00
25238;BME280;13185;50.872;5.306;2023-12-20T02:48:55;101464.41;;;4.71;100.00
25238;BME280;13185;50.872;5.306;2023-12-20T02:51:20;101459.19;;;4.67;100.00
25238;BME280;13185;50.872;5.306;2023-12-20T02:53:45;101469.00;;;4.64;100.00
25238;BME280;13185;50.872;5.306;2023-12-20T02:56:11;101477.97;;;4.62;100.00
25238;BME280;13185;50.872;5.306;2023-12-20T02:58:37;101483.38;;;4.59;100.00
25238;BME280;13185;50.872;5.306;2023-12-20T03:01:02;101482.53;;;4.57;100.00
25238;BME280;13185;50.872;5.306;2023-12-20T03:03:28;101469.28;;;4.55;100.00
25238;BME280;13185;50.872;5.306;2023-12-20T03:05:53;101470.22;;;4.54;100.00
25238;BME280;13185;50.872;5.306;2023-12-20T03:08:19;101463.16;;;4.53;100.00
25238;BME280;13185;50.872;5.306;2023-12-20T03:10:44;101471.13;;;4.53;100.00
25238;BME280;13185;50.872;5.306;2023-12-20T03:13:10;101464.91;;;4.54;100.00
25238;BME280;13185;50.872;5.306;2023-12-20T03:15:35;101461.31;;;4.55;100.00
25238;BME280;13185;50.872;5.306;2023-12-20T03:18:01;101467.44;;;4.57;100.00
25238;BME280;13185;50.872;5.306;2023-12-20T03:20:27;101462.06;;;4.60;100.00
25238;BME280;13185;50.872;5.306;2023-12-20T03:22:52;101464.72;;;4.60;100.00
25238;BME280;13185;50.872;5.306;2023-12-20T03:25:18;101465.53;;;4.62;100.00
25238;BME280;13185;50.872;5.306;2023-12-20T03:27:43;101468.19;;;4.62;100.00
25238;BME280;13185;50.872;5.306;2023-12-20T03:30:09;101470.84;;;4.62;100.00
25238;BME280;13185;50.872;5.306;2023-12-20T03:32:35;101458.44;;;4.63;100.00
25238;BME280;13185;50.872;5.306;2023-12-20T03:35:00;101448.69;;;4.63;100.00
25238;BME280;13185;50.872;5.306;2023-12-20T03:37:26;101451.34;;;4.63;100.00
25238;BME280;13185;50.872;5.306;2023-12-20T03:39:51;101451.38;;;4.62;100.00
25238;BME280;13185;50.872;5.306;2023-12-20T03:42:17;101452.25;;;4.62;100.00
25238;BME280;13185;50.872;5.306;2023-12-20T03:44:42;101461.16;;;4.61;100.00
25238;BME280;13185;50.872;5.306;2023-12-20T03:47:08;101445.25;;;4.60;100.00
25238;BME280;13185;50.872;5.306;2023-12-20T03:49:33;101452.31;;;4.61;100.00
25238;BME280;13185;50.872;5.306;2023-12-20T03:51:59;101447.00;;;4.61;100.00
25238;BME280;13185;50.872;5.306;2023-12-20T03:54:24;101444.28;;;4.62;100.00
25238;BME280;13185;50.872;5.306;2023-12-20T03:56:50;101456.53;;;4.67;100.00
25238;BME280;13185;50.872;5.306;2023-12-20T03:59:15;101455.63;;;4.68;100.00
25238;BME280;13185;50.872;5.306;2023-12-20T04:01:44;101446.72;;;4.70;100.00
25238;BME280;13185;50.872;5.306;2023-12-20T04:04:10;101452.91;;;4.71;100.00
25238;BME280;13185;50.872;5.306;2023-12-20T04:06:36;101458.16;;;4.72;100.00
25238;BME280;13185;50.872;5.306;2023-12-20T04:09:02;101451.94;;;4.73;100.00
25238;BME280;13185;50.872;5.306;2023-12-20T04:11:28;101446.50;;;4.76;100.00
25238;BME280;13185;50.872;5.306;2023-12-20T04:13:53;101457.94;;;4.78;100.00
25238;BME280;13185;50.872;5.306;2023-12-20T04:16:19;101459.75;;;4.78;100.00
25238;BME280;13185;50.872;5.306;2023-12-20T04:18:45;101440.22;;;4.79;100.00
25238;BME280;13185;50.872;5.306;2023-12-20T04:21:10;101460.59;;;4.80;100.00
25238;BME280;13185;50.872;5.306;2023-12-20T04:23:36;101463.25;;;4.80;100.00
25238;BME280;13185;50.872;5.306;2023-12-20T04:26:01;101456.13;;;4.80;100.00
25238;BME280;13185;50.872;5.306;2023-12-20T04:28:27;101460.53;;;4.81;100.00
25238;BME280;13185;50.872;5.306;2023-12-20T04:30:55;101471.97;;;4.83;100.00
25238;BME280;13185;50.872;5.306;2023-12-20T04:33:21;101466.66;;;4.83;100.00
25238;BME280;13185;50.872;5.306;2023-12-20T04:35:48;101485.38;;;4.80;100.00
25238;BME280;13185;50.872;5.306;2023-12-20T04:38:13;101474.75;;;4.79;100.00
25238;BME280;13185;50.872;5.306;2023-12-20T04:40:39;101480.94;;;4.79;100.00
25238;BME280;13185;50.872;5.306;2023-12-20T04:43:06;101474.75;;;4.80;100.00
25238;BME280;13185;50.872;5.306;2023-12-20T04:45:32;101475.63;;;4.81;100.00
25238;BME280;13185;50.872;5.306;2023-12-20T04:47:57;101474.69;;;4.82;100.00
25238;BME280;13185;50.872;5.306;2023-12-20T04:50:23;101474.69;;;4.82;100.00
25238;BME280;13185;50.872;5.306;2023-12-20T04:52:48;101468.56;;;4.80;100.00
25238;BME280;13185;50.872;5.306;2023-12-20T04:55:14;101474.75;;;4.79;100.00
25238;BME280;13185;50.872;5.306;2023-12-20T04:57:39;101465.22;;;4.73;100.00
25238;BME280;13185;50.872;5.306;2023-12-20T05:00:06;101470.66;;;4.69;100.00
25238;BME280;13185;50.872;5.306;2023-12-20T05:02:33;101469.00;;;4.64;100.00
25238;BME280;13185;50.872;5.306;2023-12-20T05:04:59;101477.09;;;4.61;100.00
25238;BME280;13185;50.872;5.306;2023-12-20T05:07:25;101480.72;;;4.57;100.00
25238;BME280;13185;50.872;5.306;2023-12-20T05:09:50;101476.34;;;4.56;100.00
25238;BME280;13185;50.872;5.306;2023-12-20T05:12:16;101479.00;;;4.56;100.00
25238;BME280;13185;50.872;5.306;2023-12-20T05:14:41;101474.59;;;4.55;100.00
25238;BME280;13185;50.872;5.306;2023-12-20T05:17:07;101482.69;;;4.52;100.00
25238;BME280;13185;50.872;5.306;2023-12-20T05:19:32;101473.88;;;4.50;100.00
25238;BME280;13185;50.872;5.306;2023-12-20T05:22:01;101466.84;;;4.49;100.00
25238;BME280;13185;50.872;5.306;2023-12-20T05:24:27;101461.53;;;4.48;100.00
25238;BME280;13185;50.872;5.306;2023-12-20T05:26:53;101449.19;;;4.47;100.00
25238;BME280;13185;50.872;5.306;2023-12-20T05:29:19;101443.88;;;4.47;100.00
25238;BME280;13185;50.872;5.306;2023-12-20T05:31:44;101451.06;;;4.43;100.00
25238;BME280;13185;50.872;5.306;2023-12-20T05:34:10;101457.25;;;4.44;100.00
25238;BME280;13185;50.872;5.306;2023-12-20T05:36:36;101468.84;;;4.41;100.00
25238;BME280;13185;50.872;5.306;2023-12-20T05:39:02;101463.53;;;4.41;100.00
25238;BME280;13185;50.872;5.306;2023-12-20T05:41:29;101459.25;;;4.35;100.00
25238;BME280;13185;50.872;5.306;2023-12-20T05:43:55;101464.56;;;4.35;100.00
25238;BME280;13185;50.872;5.306;2023-12-20T05:46:20;101459.31;;;4.34;100.00
25238;BME280;13185;50.872;5.306;2023-12-20T05:48:47;101465.53;;;4.33;100.00
25238;BME280;13185;50.872;5.306;2023-12-20T05:51:12;101469.13;;;4.32;100.00
25238;BME280;13185;50.872;5.306;2023-12-20T05:53:38;101477.13;;;4.30;100.00
25238;BME280;13185;50.872;5.306;2023-12-20T05:56:04;101466.56;;;4.29;100.00
25238;BME280;13185;50.872;5.306;2023-12-20T05:58:30;101474.56;;;4.27;100.00
25238;BME280;13185;50.872;5.306;2023-12-20T06:00:55;101469.31;;;4.24;100.00
25238;BME280;13185;50.872;5.306;2023-12-20T06:03:21;101465.81;;;4.24;100.00
25238;BME280;13185;50.872;5.306;2023-12-20T06:05:46;101460.53;;;4.22;100.00
25238;BME280;13185;50.872;5.306;2023-12-20T06:08:12;101464.13;;;4.21;100.00
25238;BME280;13185;50.872;5.306;2023-12-20T06:10:37;101466.81;;;4.20;100.00
25238;BME280;13185;50.872;5.306;2023-12-20T06:13:03;101463.28;;;4.19;100.00
25238;BME280;13185;50.872;5.306;2023-12-20T06:15:30;101476.53;;;4.21;100.00
25238;BME280;13185;50.872;5.306;2023-12-20T06:17:55;101475.69;;;4.19;100.00
25238;BME280;13185;50.872;5.306;2023-12-20T06:20:20;101480.13;;;4.18;100.00
25238;BME280;13185;50.872;5.306;2023-12-20T06:22:46;101485.47;;;4.17;100.00
25238;BME280;13185;50.872;5.306;2023-12-20T06:25:12;101483.72;;;4.16;100.00
25238;BME280;13185;50.872;5.306;2023-12-20T06:27:37;101490.00;;;4.13;100.00
25238;BME280;13185;50.872;5.306;2023-12-20T06:30:03;101489.13;;;4.13;100.00
25238;BME280;13185;50.872;5.306;2023-12-20T06:32:29;101497.09;;;4.13;100.00
25238;BME280;13185;50.872;5.306;2023-12-20T06:34:55;101498.94;;;4.11;100.00
25238;BME280;13185;50.872;5.306;2023-12-20T06:37:21;101498.88;;;4.12;100.00
25238;BME280;13185;50.872;5.306;2023-12-20T06:39:46;101501.50;;;4.14;100.00
25238;BME280;13185;50.872;5.306;2023-12-20T06:42:12;101503.28;;;4.13;100.00
25238;BME280;13185;50.872;5.306;2023-12-20T06:44:38;101507.63;;;4.16;100.00
25238;BME280;13185;50.872;5.306;2023-12-20T06:47:04;101506.69;;;4.17;100.00
25238;BME280;13185;50.872;5.306;2023-12-20T06:49:30;101507.56;;;4.19;100.00
25238;BME280;13185;50.872;5.306;2023-12-20T06:51:55;101501.38;;;4.18;100.00
25238;BME280;13185;50.872;5.306;2023-12-20T06:54:21;101500.47;;;4.19;100.00
25238;BME280;13185;50.872;5.306;2023-12-20T06:56:46;101501.28;;;4.21;100.00
25238;BME280;13185;50.872;5.306;2023-12-20T06:59:12;101489.78;;;4.21;100.00
25238;BME280;13185;50.872;5.306;2023-12-20T07:01:37;101492.41;;;4.22;100.00
25238;BME280;13185;50.872;5.306;2023-12-20T07:04:03;101486.13;;;4.25;100.00
25238;BME280;13185;50.872;5.306;2023-12-20T07:06:28;101489.66;;;4.25;100.00
25238;BME280;13185;50.872;5.306;2023-12-20T07:08:54;101488.72;;;4.26;100.00
25238;BME280;13185;50.872;5.306;2023-12-20T07:11:20;101494.03;;;4.28;100.00
25238;BME280;13185;50.872;5.306;2023-12-20T07:13:45;101495.81;;;4.26;100.00
25238;BME280;13185;50.872;5.306;2023-12-20T07:16:11;101488.72;;;4.26;100.00
25238;BME280;13185;50.872;5.306;2023-12-20T07:18:37;101490.56;;;4.24;100.00
25238;BME280;13185;50.872;5.306;2023-12-20T07:21:03;101478.22;;;4.23;100.00
25238;BME280;13185;50.872;5.306;2023-12-20T07:23:28;101473.88;;;4.21;100.00
25238;BME280;13185;50.872;5.306;2023-12-20T07:25:54;101480.09;;;4.20;100.00
25238;BME280;13185;50.872;5.306;2023-12-20T07:28:20;101489.88;;;4.18;100.00
25238;BME280;13185;50.872;5.306;2023-12-20T07:30:45;101489.03;;;4.16;100.00
25238;BME280;13185;50.872;5.306;2023-12-20T07:33:11;101494.34;;;4.16;100.00
25238;BME280;13185;50.872;5.306;2023-12-20T07:35:37;101496.13;;;4.15;100.00
25238;BME280;13185;50.872;5.306;2023-12-20T07:38:03;101492.66;;;4.13;100.00
25238;BME280;13185;50.872;5.306;2023-12-20T07:40:29;101491.78;;;4.13;100.00
25238;BME280;13185;50.872;5.306;2023-12-20T07:42:54;101491.78;;;4.13;100.00
25238;BME280;13185;50.872;5.306;2023-12-20T07:45:20;101501.53;;;4.12;100.00
25238;BME280;13185;50.872;5.306;2023-12-20T07:47:45;101498.94;;;4.11;100.00
25238;BME280;13185;50.872;5.306;2023-12-20T07:50:11;101505.09;;;4.11;100.00
25238;BME280;13185;50.872;5.306;2023-12-20T07:52:36;101500.75;;;4.09;100.00
25238;BME280;13185;50.872;5.306;2023-12-20T07:55:02;101498.16;;;4.07;100.00
25238;BME280;13185;50.872;5.306;2023-12-20T07:57:31;101499.03;;;4.08;100.00
25238;BME280;13185;50.872;5.306;2023-12-20T07:59:56;101494.66;;;4.05;100.00
25238;BME280;13185;50.872;5.306;2023-12-20T08:02:22;101494.66;;;4.05;100.00
25238;BME280;13185;50.872;5.306;2023-12-20T08:04:47;101493.78;;;4.04;100.00
25238;BME280;13185;50.872;5.306;2023-12-20T08:07:13;101498.22;;;4.04;100.00
25238;BME280;13185;50.872;5.306;2023-12-20T08:09:38;101491.16;;;4.03;100.00
25238;BME280;13185;50.872;5.306;2023-12-20T08:12:04;101496.44;;;4.04;100.00
25238;BME280;13185;50.872;5.306;2023-12-20T08:14:29;101496.44;;;4.04;100.00
25238;BME280;13185;50.872;5.306;2023-12-20T08:16:55;101493.81;;;4.03;100.00
25238;BME280;13185;50.872;5.306;2023-12-20T08:19:20;101499.94;;;4.05;100.00
25238;BME280;13185;50.872;5.306;2023-12-20T08:21:46;101495.59;;;4.02;100.00
25238;BME280;13185;50.872;5.306;2023-12-20T08:24:11;101510.66;;;4.02;100.00
25238;BME280;13185;50.872;5.306;2023-12-20T08:26:37;101513.31;;;4.02;100.00
25238;BME280;13185;50.872;5.306;2023-12-20T08:29:02;101509.75;;;4.03;100.00
25238;BME280;13185;50.872;5.306;2023-12-20T08:31:28;101518.59;;;4.03;100.00
25238;BME280;13185;50.872;5.306;2023-12-20T08:33:54;101504.41;;;4.04;100.00
25238;BME280;13185;50.872;5.306;2023-12-20T08:36:21;101505.25;;;4.05;100.00
25238;BME280;13185;50.872;5.306;2023-12-20T08:38:48;101507.91;;;4.05;100.00
25238;BME280;13185;50.872;5.306;2023-12-20T08:41:14;101515.88;;;4.05;100.00
25238;BME280;13185;50.872;5.306;2023-12-20T08:43:39;101522.09;;;4.04;100.00
25238;BME280;13185;50.872;5.306;2023-12-20T08:46:08;101515.00;;;4.04;100.00
25238;BME280;13185;50.872;5.306;2023-12-20T08:48:37;101518.53;;;4.07;100.00
25238;BME280;13185;50.872;5.306;2023-12-20T08:51:04;101522.00;;;4.09;100.00
25238;BME280;13185;50.872;5.306;2023-12-20T08:53:29;101521.03;;;4.11;100.00
25238;BME280;13185;50.872;5.306;2023-12-20T08:55:55;101517.47;;;4.12;100.00
25238;BME280;13185;50.872;5.306;2023-12-20T08:58:20;101516.44;;;4.18;100.00
25238;BME280;13185;50.872;5.306;2023-12-20T09:00:46;101507.38;;;4.25;100.00
25238;BME280;13185;50.872;5.306;2023-12-20T09:03:11;101514.31;;;4.30;100.00
25238;BME280;13185;50.872;5.306;2023-12-20T09:05:37;101511.50;;;4.35;100.00
25238;BME280;13185;50.872;5.306;2023-12-20T09:08:02;101513.16;;;4.39;100.00
25238;BME280;13185;50.872;5.306;2023-12-20T09:10:28;101502.50;;;4.41;100.00
25238;BME280;13185;50.872;5.306;2023-12-20T09:12:53;101491.94;;;4.39;100.00
25238;BME280;13185;50.872;5.306;2023-12-20T09:15:26;101478.72;;;4.36;100.00
25238;BME280;13185;50.872;5.306;2023-12-20T09:17:52;101477.91;;;4.34;100.00
25238;BME280;13185;50.872;5.306;2023-12-20T09:20:19;101478.75;;;4.34;100.00
25238;BME280;13185;50.872;5.306;2023-12-20T09:22:44;101486.63;;;4.38;100.00
25238;BME280;13185;50.872;5.306;2023-12-20T09:25:10;101495.44;;;4.40;100.00
25238;BME280;13185;50.872;5.306;2023-12-20T09:27:41;101497.13;;;4.42;100.00
25238;BME280;13185;50.872;5.306;2023-12-20T09:30:06;101489.13;;;4.44;100.00
25238;BME280;13185;50.872;5.306;2023-12-20T09:32:32;101487.28;;;4.46;100.00
25238;BME280;13185;50.872;5.306;2023-12-20T09:34:58;101487.22;;;4.49;100.00
25238;BME280;13185;50.872;5.306;2023-12-20T09:37:26;101492.47;;;4.50;100.00
25238;BME280;13185;50.872;5.306;2023-12-20T09:39:52;101492.38;;;4.53;100.00
25238;BME280;13185;50.872;5.306;2023-12-20T09:42:24;101499.38;;;4.56;100.00
25238;BME280;13185;50.872;5.306;2023-12-20T09:44:50;101497.53;;;4.59;100.00
25238;BME280;13185;50.872;5.306;2023-12-20T09:47:19;101486.78;;;4.62;100.00
25238;BME280;13185;50.872;5.306;2023-12-20T09:49:47;101494.63;;;4.67;100.00
25238;BME280;13185;50.872;5.306;2023-12-20T09:52:12;101491.88;;;4.70;100.00
25238;BME280;13185;50.872;5.306;2023-12-20T09:54:39;101487.38;;;4.72;100.00
25238;BME280;13185;50.872;5.306;2023-12-20T09:57:06;101497.00;;;4.76;100.00
25238;BME280;13185;50.872;5.306;2023-12-20T09:59:31;101488.91;;;4.79;100.00
25238;BME280;13185;50.872;5.306;2023-12-20T10:01:57;101495.13;;;4.80;100.00
25238;BME280;13185;50.872;5.306;2023-12-20T10:04:23;101488.84;;;4.82;100.00
25238;BME280;13185;50.872;5.306;2023-12-20T10:06:48;101473.72;;;4.84;100.00
25238;BME280;13185;50.872;5.306;2023-12-20T10:09:14;101481.59;;;4.87;100.00
25238;BME280;13185;50.872;5.306;2023-12-20T10:11:40;101469.09;;;4.91;100.00
25238;BME280;13185;50.872;5.306;2023-12-20T10:14:07;101468.13;;;4.93;100.00
25238;BME280;13185;50.872;5.306;2023-12-20T10:16:33;101472.41;;;4.98;100.00
25238;BME280;13185;50.872;5.306;2023-12-20T10:19:00;101458.94;;;5.04;100.00
25238;BME280;13185;50.872;5.306;2023-12-20T10:21:29;101458.63;;;5.13;100.00
25238;BME280;13185;50.872;5.306;2023-12-20T10:23:56;101470.59;;;5.26;100.00
25238;BME280;13185;50.872;5.306;2023-12-20T10:26:22;101459.66;;;5.35;100.00
25238;BME280;13185;50.872;5.306;2023-12-20T10:28:56;101465.66;;;5.42;100.00
25238;BME280;13185;50.872;5.306;2023-12-20T10:31:33;101458.44;;;5.45;100.00
25238;BME280;13185;50.872;5.306;2023-12-20T10:34:00;101457.31;;;5.51;100.00
25238;BME280;13185;50.872;5.306;2023-12-20T10:36:27;101470.59;;;5.53;100.00
25238;BME280;13185;50.872;5.306;2023-12-20T10:38:54;101467.03;;;5.54;100.00
25238;BME280;13185;50.872;5.306;2023-12-20T10:41:29;101454.53;;;5.56;100.00
25238;BME280;13185;50.872;5.306;2023-12-20T10:43:59;101452.69;;;5.58;100.00
25238;BME280;13185;50.872;5.306;2023-12-20T10:46:27;101465.06;;;5.59;100.00
25238;BME280;13185;50.872;5.306;2023-12-20T10:48:54;101457.88;;;5.61;100.00
25238;BME280;13185;50.872;5.306;2023-12-20T10:51:21;101450.69;;;5.64;100.00
25238;BME280;13185;50.872;5.306;2023-12-20T10:53:47;101448.84;;;5.66;100.00
25238;BME280;13185;50.872;5.306;2023-12-20T10:56:16;101443.34;;;5.71;100.00
25238;BME280;13185;50.872;5.306;2023-12-20T10:58:43;101449.31;;;5.77;100.00
25238;BME280;13185;50.872;5.306;2023-12-20T11:01:14;101436.81;;;5.79;100.00
25238;BME280;13185;50.872;5.306;2023-12-20T11:03:46;101436.69;;;5.83;100.00
25238;BME280;13185;50.872;5.306;2023-12-20T11:14:46;101407.78;;;5.98;100.00
25238;BME280;13185;50.872;5.306;2023-12-20T11:17:13;101412.91;;;6.03;100.00
25238;BME280;13185;50.872;5.306;2023-12-20T11:22:20;101402.91;;;6.10;100.00
25238;BME280;13185;50.872;5.306;2023-12-20T11:24:47;101401.88;;;6.14;100.00
25238;BME280;13185;50.872;5.306;2023-12-20T11:27:13;101399.91;;;6.19;100.00
25238;BME280;13185;50.872;5.306;2023-12-20T11:29:39;101408.69;;;6.21;100.00
25238;BME280;13185;50.872;5.306;2023-12-20T11:35:01;101398.16;;;6.41;100.00
25238;BME280;13185;50.872;5.306;2023-12-20T11:37:45;101413.84;;;6.49;100.00
25238;BME280;13185;50.872;5.306;2023-12-20T11:40:15;101418.91;;;6.55;100.00
25238;BME280;13185;50.872;5.306;2023-12-20T11:42:42;101396.63;;;6.57;100.00
25238;BME280;13185;50.872;5.306;2023-12-20T11:45:19;101398.31;;;6.60;100.00
25238;BME280;13185;50.872;5.306;2023-12-20T11:47:47;101394.72;;;6.61;100.00
25238;BME280;13185;50.872;5.306;2023-12-20T11:50:17;101390.13;;;6.64;100.00
25238;BME280;13185;50.872;5.306;2023-12-20T11:52:44;101381.19;;;6.65;100.00
25238;BME280;13185;50.872;5.306;2023-12-20T11:55:09;101374.81;;;6.70;100.00
25238;BME280;13185;50.872;5.306;2023-12-20T11:57:36;101374.69;;;6.73;100.00
25238;BME280;13185;50.872;5.306;2023-12-20T12:00:02;101374.63;;;6.74;100.00
25238;BME280;13185;50.872;5.306;2023-12-20T12:02:37;101374.56;;;6.76;100.00
25238;BME280;13185;50.872;5.306;2023-12-20T12:05:03;101369.97;;;6.79;100.00
25238;BME280;13185;50.872;5.306;2023-12-20T12:07:32;101368.84;;;6.85;100.00
25238;BME280;13185;50.872;5.306;2023-12-20T12:09:57;101358.97;;;6.87;100.00
25238;BME280;13185;50.872;5.306;2023-12-20T12:12:23;101363.34;;;6.89;100.00
25238;BME280;13185;50.872;5.306;2023-12-20T12:14:50;101358.81;;;6.91;100.00
25238;BME280;13185;50.872;5.306;2023-12-20T12:17:16;101365.06;;;6.90;100.00
25238;BME280;13185;50.872;5.306;2023-12-20T12:19:42;101357.06;;;6.90;100.00
25238;BME280;13185;50.872;5.306;2023-12-20T12:22:10;101343.66;;;6.92;100.00
25238;BME280;13185;50.872;5.306;2023-12-20T12:24:40;101354.28;;;6.93;100.00
25238;BME280;13185;50.872;5.306;2023-12-20T12:27:08;101349.06;;;6.90;100.00
25238;BME280;13185;50.872;5.306;2023-12-20T12:29:35;101350.88;;;6.90;100.00
25238;BME280;13185;50.872;5.306;2023-12-20T12:32:04;101353.47;;;6.91;100.00
25238;BME280;13185;50.872;5.306;2023-12-20T12:34:31;101349.88;;;6.92;100.00
25238;BME280;13185;50.872;5.306;2023-12-20T12:36:57;101334.13;;;6.86;100.00
25238;BME280;13185;50.872;5.306;2023-12-20T12:39:23;101333.38;;;6.83;100.00
25238;BME280;13185;50.872;5.306;2023-12-20T12:41:53;101335.19;;;6.82;100.00
25238;BME280;13185;50.872;5.306;2023-12-20T12:44:19;101334.38;;;6.80;100.00
25238;BME280;13185;50.872;5.306;2023-12-20T12:46:45;101340.59;;;6.81;100.00
25238;BME280;13185;50.872;5.306;2023-12-20T12:49:11;101322.78;;;6.81;100.00
25238;BME280;13185;50.872;5.306;2023-12-20T12:51:37;101332.44;;;6.84;100.00
25238;BME280;13185;50.872;5.306;2023-12-20T12:54:02;101336.75;;;6.88;100.00
25238;BME280;13185;50.872;5.306;2023-12-20T12:56:28;101332.31;;;6.87;100.00
25238;BME280;13185;50.872;5.306;2023-12-20T12:58:54;101335.91;;;6.86;100.00